Terminal Aerodrome Forecast
Issued by NWS Sioux Falls, SD

Home | Current Version | Previous Version | Text Only | Print | Product List | Glossary On
Versions: 1 2 3 4 5 6 7 8 9 10 11 12 13 14 15 16
158
FTUS43 KFSD 132320
TAFHON
TAF
KHON 132320Z 1400/1424 33012G25KT P6SM OVC030
     FM140230 32010G15KT P6SM SCT030 OVC035
     FM141400 31005KT 4SM -SN BKN012 OVC020
     FM141900 34010G15KT P6SM VCSH SCT020 OVC035=

USA.gov is the U.S. government's official web portal to all federal, state and local government web resources and services.